createdAt,value
2022-11-22T00:00:08.890Z,11.65
2022-11-22T00:02:35.984Z,10.85
2022-11-22T00:05:03.574Z,10.05
2022-11-22T00:07:30.364Z,10.70
2022-11-22T00:09:57.063Z,9.07
2022-11-22T00:12:23.830Z,12.05
2022-11-22T00:14:55.446Z,10.65
2022-11-22T00:17:23.378Z,9.52
2022-11-22T00:19:49.958Z,10.82
2022-11-22T00:22:16.567Z,13.98
2022-11-22T00:24:44.151Z,11.82
2022-11-22T00:27:10.771Z,9.70
2022-11-22T00:29:37.445Z,10.60
2022-11-22T00:32:04.482Z,12.18
2022-11-22T00:34:31.099Z,11.43
2022-11-22T00:37:01.020Z,10.65
2022-11-22T00:39:28.034Z,10.10
2022-11-22T00:41:54.857Z,15.43
2022-11-22T00:44:21.533Z,13.52
2022-11-22T00:46:48.258Z,14.38
2022-11-22T00:49:14.967Z,11.68
2022-11-22T00:51:41.650Z,12.80
2022-11-22T00:54:08.500Z,14.60
2022-11-22T00:56:35.737Z,9.65
2022-11-22T00:59:02.381Z,20.30
2022-11-22T01:01:29.124Z,13.98
2022-11-22T01:03:55.795Z,10.05
2022-11-22T01:06:22.612Z,10.48
2022-11-22T01:08:49.443Z,10.80
2022-11-22T01:11:19.026Z,7.88
2022-11-22T01:13:45.678Z,10.95
2022-11-22T01:16:13.258Z,11.77
2022-11-22T01:18:40.523Z,7.18
2022-11-22T01:21:07.327Z,10.07
2022-11-22T01:23:35.227Z,9.13
2022-11-22T01:26:02.494Z,10.20
2022-11-22T01:28:29.444Z,11.50
2022-11-22T01:30:56.060Z,8.32
2022-11-22T01:33:23.389Z,10.02
2022-11-22T01:35:50.072Z,12.05
2022-11-22T01:38:17.060Z,12.23
2022-11-22T01:40:43.731Z,9.93
2022-11-22T01:43:18.198Z,10.90
2022-11-22T01:45:47.612Z,10.38
2022-11-22T01:48:18.974Z,7.90
2022-11-22T01:50:49.238Z,6.68
2022-11-22T01:53:22.324Z,12.82
2022-11-22T01:55:51.252Z,11.98
2022-11-22T01:58:19.600Z,10.13
2022-11-22T02:00:46.727Z,9.32
2022-11-22T02:03:17.218Z,10.30
2022-11-22T02:05:43.997Z,7.75
2022-11-22T02:08:15.534Z,6.50
2022-11-22T02:10:47.878Z,11.15
2022-11-22T02:13:16.048Z,7.97
2022-11-22T02:15:43.051Z,10.27
2022-11-22T02:18:10.294Z,13.00
2022-11-22T02:20:39.428Z,9.90
2022-11-22T02:23:07.126Z,14.13
2022-11-22T02:25:53.441Z,12.32
2022-11-22T02:28:20.065Z,8.75
2022-11-22T02:30:46.787Z,8.98
2022-11-22T02:33:13.523Z,13.65
2022-11-22T02:35:41.735Z,18.35
2022-11-22T02:38:12.502Z,12.95
2022-11-22T02:40:45.443Z,13.40
2022-11-22T02:43:17.238Z,8.20
2022-11-22T02:45:44.089Z,14.38
2022-11-22T02:48:13.883Z,12.65
2022-11-22T02:50:40.502Z,10.10
2022-11-22T02:53:08.526Z,10.13
2022-11-22T02:55:35.833Z,10.40
2022-11-22T02:58:03.442Z,9.23
2022-11-22T03:00:30.143Z,14.57
2022-11-22T03:02:56.758Z,13.32
2022-11-22T03:05:23.395Z,10.45
2022-11-22T03:07:50.904Z,11.32
2022-11-22T03:10:17.928Z,9.98
2022-11-22T03:12:44.606Z,9.00
2022-11-22T03:15:11.595Z,11.07
2022-11-22T03:17:38.420Z,10.43
2022-11-22T03:20:05.686Z,12.82
2022-11-22T03:22:32.395Z,9.30
2022-11-22T03:24:59.000Z,15.18
2022-11-22T03:27:25.621Z,14.95
2022-11-22T03:29:52.261Z,10.02
2022-11-22T03:32:18.857Z,8.50
2022-11-22T03:34:45.520Z,12.75
2022-11-22T03:37:12.187Z,8.20
2022-11-22T03:39:38.775Z,9.63
2022-11-22T03:42:05.471Z,12.10
2022-11-22T03:44:32.111Z,10.10
2022-11-22T03:46:58.813Z,11.82
2022-11-22T03:49:25.403Z,11.52
2022-11-22T03:51:51.973Z,10.40
2022-11-22T03:54:18.574Z,9.50
2022-11-22T03:56:45.181Z,14.20
2022-11-22T03:59:11.795Z,11.40
2022-11-22T04:01:38.424Z,10.90
2022-11-22T04:04:05.275Z,11.48
2022-11-22T04:06:32.087Z,11.85
2022-11-22T04:08:58.764Z,11.25
2022-11-22T04:11:25.464Z,9.27
2022-11-22T04:14:07.247Z,12.18
2022-11-22T04:16:33.887Z,11.13
2022-11-22T04:19:00.533Z,13.70
2022-11-22T04:21:35.688Z,10.18
2022-11-22T04:24:22.693Z,16.23
2022-11-22T04:29:17.336Z,9.98
2022-11-22T04:31:59.694Z,9.77
2022-11-22T04:34:26.628Z,12.55
2022-11-22T04:36:53.310Z,14.63
2022-11-22T04:39:23.502Z,14.00
2022-11-22T04:42:12.596Z,12.13
2022-11-22T04:44:42.377Z,15.43
2022-11-22T04:47:11.145Z,15.63
2022-11-22T04:49:38.196Z,21.88
2022-11-22T04:52:21.056Z,23.98
2022-11-22T04:54:47.745Z,19.80
2022-11-22T04:57:14.447Z,16.27
2022-11-22T04:59:41.104Z,18.58
2022-11-22T05:02:07.914Z,18.15
2022-11-22T05:04:34.638Z,20.15
2022-11-22T05:07:02.228Z,18.33
2022-11-22T05:09:29.086Z,20.60
2022-11-22T05:11:55.995Z,19.13
2022-11-22T05:14:22.652Z,24.02
2022-11-22T05:16:49.360Z,21.88
2022-11-22T05:19:16.094Z,23.23
2022-11-22T05:21:42.942Z,21.73
2022-11-22T05:24:09.652Z,22.33
2022-11-22T05:26:37.048Z,27.20
2022-11-22T05:29:05.899Z,25.73
2022-11-22T05:31:34.122Z,29.98
2022-11-22T05:34:01.364Z,29.95
2022-11-22T05:36:31.087Z,30.88
2022-11-22T05:38:57.741Z,32.35
2022-11-22T05:41:24.764Z,32.65
2022-11-22T05:43:51.337Z,32.08
2022-11-22T05:46:24.897Z,32.28
2022-11-22T05:48:53.219Z,26.42
2022-11-22T05:51:22.092Z,29.65
2022-11-22T05:53:48.742Z,28.92
2022-11-22T05:56:18.505Z,29.40
2022-11-22T05:58:45.654Z,32.28
2022-11-22T06:01:21.536Z,31.13
2022-11-22T06:03:49.123Z,40.88
2022-11-22T06:06:16.339Z,29.50
2022-11-22T06:08:47.861Z,32.28
2022-11-22T06:11:20.944Z,32.60
2022-11-22T06:13:49.968Z,35.00
2022-11-22T06:16:17.219Z,38.97
2022-11-22T06:18:44.440Z,42.05
2022-11-22T06:21:13.854Z,41.00
2022-11-22T06:23:40.522Z,38.22
2022-11-22T06:26:10.131Z,43.22
2022-11-22T06:28:38.579Z,40.00
2022-11-22T06:31:08.120Z,35.50
2022-11-22T06:33:34.952Z,40.38
2022-11-22T06:36:04.035Z,38.85
2022-11-22T06:38:30.687Z,46.83
2022-11-22T06:41:01.509Z,42.50
2022-11-22T06:43:29.840Z,38.92
2022-11-22T06:45:58.987Z,42.05
2022-11-22T06:48:26.916Z,36.60
2022-11-22T06:51:00.422Z,41.95
2022-11-22T06:53:46.168Z,44.65
2022-11-22T06:56:17.220Z,39.33
2022-11-22T06:58:45.124Z,39.33
2022-11-22T07:01:15.126Z,41.63
2022-11-22T07:03:42.918Z,37.08
2022-11-22T07:06:11.733Z,39.83
2022-11-22T07:08:39.384Z,36.17
2022-11-22T07:11:09.546Z,35.70
2022-11-22T07:13:36.951Z,38.08
2022-11-22T07:16:06.116Z,36.17
2022-11-22T07:18:33.248Z,36.88
2022-11-22T07:21:05.684Z,33.58
2022-11-22T07:23:34.935Z,42.72
2022-11-22T07:26:01.574Z,35.08
2022-11-22T07:28:28.316Z,37.90
2022-11-22T07:31:00.437Z,38.40
2022-11-22T07:33:27.231Z,36.47
2022-11-22T07:35:54.274Z,39.90
2022-11-22T07:38:21.253Z,34.83
2022-11-22T07:40:48.036Z,33.53
2022-11-22T07:43:15.311Z,33.95
2022-11-22T07:45:41.891Z,37.00
2022-11-22T07:48:08.555Z,35.30
2022-11-22T07:50:35.148Z,39.70
2022-11-22T07:53:01.775Z,32.83
2022-11-22T07:55:28.752Z,42.35
2022-11-22T07:57:58.746Z,38.95
2022-11-22T08:00:25.859Z,41.30
2022-11-22T08:02:52.614Z,33.10
2022-11-22T08:05:19.775Z,29.25
2022-11-22T08:07:48.359Z,30.98
2022-11-22T08:10:15.166Z,28.45
2022-11-22T08:12:41.993Z,31.75
2022-11-22T08:15:10.245Z,33.58
2022-11-22T08:17:38.257Z,35.20
2022-11-22T08:20:06.512Z,28.83
2022-11-22T08:22:33.091Z,31.52
2022-11-22T08:24:59.736Z,32.70
2022-11-22T08:27:26.353Z,35.75
2022-11-22T08:29:53.149Z,32.63
2022-11-22T08:32:19.850Z,36.35
2022-11-22T08:34:47.427Z,31.13
2022-11-22T08:37:14.328Z,42.50
2022-11-22T08:39:44.187Z,37.72
2022-11-22T08:42:10.814Z,36.78
2022-11-22T08:44:37.417Z,40.78
2022-11-22T08:47:04.056Z,38.92
2022-11-22T08:49:30.766Z,38.50
2022-11-22T08:51:57.473Z,40.85
2022-11-22T08:54:24.454Z,54.17
2022-11-22T08:56:51.146Z,51.30
2022-11-22T08:59:17.837Z,77.45
2022-11-22T09:01:44.804Z,40.08
2022-11-22T09:04:12.829Z,34.42
2022-11-22T09:12:08.433Z,34.35
2022-11-22T09:14:35.268Z,34.22
2022-11-22T09:17:01.949Z,39.28
2022-11-22T09:19:28.717Z,38.35
2022-11-22T09:21:55.547Z,40.80
2022-11-22T09:24:22.208Z,38.08
2022-11-22T09:26:48.938Z,43.90
2022-11-22T09:29:16.055Z,42.13
2022-11-22T09:31:43.048Z,41.30
2022-11-22T09:34:09.699Z,57.35
2022-11-22T09:36:36.573Z,41.75
2022-11-22T09:39:03.585Z,43.17
2022-11-22T09:42:00.752Z,41.55
2022-11-22T09:44:57.884Z,60.03
2022-11-22T09:47:39.720Z,59.80
2022-11-22T09:50:17.466Z,80.63
2022-11-22T09:53:04.552Z,100.13
2022-11-22T09:55:39.522Z,118.35
2022-11-22T09:58:23.672Z,103.05
2022-11-22T10:00:52.390Z,102.45
2022-11-22T10:03:36.285Z,109.47
2022-11-22T10:06:08.432Z,118.03
2022-11-22T10:08:35.601Z,147.27
2022-11-22T10:11:06.139Z,134.60
2022-11-22T10:13:41.226Z,124.97
2022-11-22T10:16:14.338Z,109.50
2022-11-22T10:19:00.837Z,96.88
2022-11-22T10:21:27.650Z,79.75
2022-11-22T10:23:54.392Z,61.22
2022-11-22T10:26:32.854Z,50.78
2022-11-22T10:29:34.712Z,44.42
2022-11-22T10:32:13.543Z,44.70
2022-11-22T10:34:55.553Z,43.97
2022-11-22T10:37:37.533Z,41.30
2022-11-22T10:40:21.000Z,50.72
2022-11-22T10:43:18.321Z,42.25
2022-11-22T10:48:19.602Z,49.67
2022-11-22T10:51:08.202Z,47.05
2022-11-22T10:54:05.322Z,51.03
2022-11-22T10:56:50.283Z,57.05
2022-11-22T10:59:17.900Z,62.72
2022-11-22T11:01:49.571Z,73.20
2022-11-22T11:04:18.226Z,67.50
2022-11-22T11:07:13.275Z,54.00
2022-11-22T11:10:09.599Z,48.08
2022-11-22T11:12:41.001Z,70.18
2022-11-22T11:15:21.733Z,71.07
2022-11-22T11:17:55.198Z,65.40
2022-11-22T11:20:28.995Z,69.95
2022-11-22T11:25:44.576Z,55.90
2022-11-22T11:28:20.320Z,67.85
2022-11-22T11:31:06.797Z,68.90
2022-11-22T11:33:37.939Z,59.08
2022-11-22T11:36:06.658Z,59.00
2022-11-22T11:38:54.624Z,54.55
2022-11-22T11:41:21.413Z,58.35
2022-11-22T11:43:49.075Z,52.60
2022-11-22T11:46:21.833Z,54.22
2022-11-22T11:48:52.099Z,50.17
2022-11-22T11:51:31.511Z,55.55
2022-11-22T11:54:01.880Z,55.00
2022-11-22T11:56:56.567Z,56.00
2022-11-22T11:59:31.484Z,57.58
2022-11-22T12:02:06.715Z,61.97
2022-11-22T12:04:36.634Z,60.20
2022-11-22T12:07:17.331Z,61.80
2022-11-22T12:09:46.257Z,57.13
2022-11-22T12:12:17.539Z,57.63
2022-11-22T12:15:10.163Z,49.50
2022-11-22T12:17:47.585Z,39.40
2022-11-22T12:20:22.150Z,39.72
2022-11-22T12:23:02.932Z,34.22
2022-11-22T12:25:36.231Z,32.33
2022-11-22T12:28:19.055Z,34.65
2022-11-22T12:30:55.662Z,34.95
2022-11-22T12:33:31.542Z,32.08
2022-11-22T12:35:59.075Z,32.63
2022-11-22T12:38:32.026Z,36.03
2022-11-22T12:41:05.827Z,27.52
2022-11-22T12:43:42.121Z,29.48
2022-11-22T12:46:19.333Z,32.45
2022-11-22T12:49:16.618Z,29.33
2022-11-22T12:51:44.248Z,26.92
2022-11-22T12:54:19.862Z,33.92
2022-11-22T12:56:51.797Z,30.83
2022-11-22T12:59:32.941Z,34.03
2022-11-22T13:02:29.125Z,32.83
2022-11-22T13:05:13.761Z,36.08
2022-11-22T13:08:10.864Z,35.00
2022-11-22T13:11:08.130Z,37.83
2022-11-22T13:13:41.228Z,32.63
2022-11-22T13:16:10.208Z,35.88
2022-11-22T13:18:45.845Z,37.47
2022-11-22T13:21:34.836Z,33.72
2022-11-22T13:24:24.086Z,37.15
2022-11-22T13:26:58.935Z,37.25
2022-11-22T13:29:28.450Z,33.67
2022-11-22T13:32:11.233Z,33.33
2022-11-22T13:34:42.314Z,32.28
2022-11-22T13:37:14.717Z,35.70
2022-11-22T13:39:50.191Z,37.53
2022-11-22T13:42:22.461Z,38.30
2022-11-22T13:45:12.094Z,38.38
2022-11-22T13:47:43.703Z,36.50
2022-11-22T13:50:45.651Z,39.58
2022-11-22T13:53:26.899Z,35.03
2022-11-22T13:55:53.575Z,42.10
2022-11-22T13:58:36.193Z,42.55
2022-11-22T14:01:02.831Z,38.95
2022-11-22T14:03:36.203Z,35.33
2022-11-22T14:06:22.173Z,42.53
2022-11-22T14:08:49.200Z,41.83
2022-11-22T14:11:40.639Z,43.03
2022-11-22T14:14:30.026Z,40.40
2022-11-22T14:17:05.039Z,43.53
2022-11-22T14:19:32.602Z,45.20
2022-11-22T14:22:11.123Z,50.83
2022-11-22T14:24:37.880Z,44.65
2022-11-22T14:27:26.875Z,51.00
2022-11-22T14:30:09.001Z,53.67
2022-11-22T14:33:06.121Z,61.33
2022-11-22T14:35:35.340Z,74.03
2022-11-22T14:38:30.625Z,72.28
2022-11-22T14:41:27.937Z,66.22
2022-11-22T14:44:13.510Z,74.15
2022-11-22T14:46:55.500Z,70.43
2022-11-22T14:49:44.067Z,65.43
2022-11-22T14:52:20.957Z,65.18
2022-11-22T14:54:52.231Z,67.40
2022-11-22T14:57:22.121Z,61.33
2022-11-22T15:00:13.844Z,57.63
2022-11-22T15:03:15.061Z,61.40
2022-11-22T15:09:11.061Z,63.47
2022-11-22T15:09:33.378Z,67.07
2022-11-22T15:12:13.384Z,68.75
2022-11-22T15:57:28.561Z,62.35
2022-11-22T15:59:56.166Z,53.50
2022-11-22T16:02:25.912Z,60.45
2022-11-22T16:06:03.504Z,56.53
2022-11-22T16:07:49.735Z,58.88
2022-11-22T16:10:37.910Z,55.38
2022-11-22T16:13:19.900Z,61.22
2022-11-22T16:16:07.204Z,59.08
2022-11-22T16:18:34.046Z,59.58
2022-11-22T16:21:02.787Z,65.50
2022-11-22T16:23:33.856Z,64.00
2022-11-22T16:26:13.734Z,62.13
2022-11-22T16:28:40.515Z,60.28
2022-11-22T16:31:17.546Z,60.03
2022-11-22T16:33:44.961Z,58.47
2022-11-22T16:36:15.212Z,53.03
2022-11-22T16:38:43.224Z,51.47
2022-11-22T16:41:19.717Z,60.70
2022-11-22T16:43:49.367Z,51.97
2022-11-22T16:46:16.463Z,42.47
2022-11-22T16:48:44.191Z,47.92
2022-11-22T16:51:13.241Z,46.00
2022-11-22T16:53:48.981Z,54.90
2022-11-22T16:56:25.058Z,44.03
2022-11-22T16:58:54.306Z,44.80
2022-11-22T17:01:24.578Z,46.40
2022-11-22T17:03:55.144Z,46.05
2022-11-22T17:06:24.448Z,50.13
2022-11-22T17:08:53.125Z,47.63
2022-11-22T17:11:22.414Z,47.75
2022-11-22T17:13:49.096Z,72.75
2022-11-22T17:16:17.955Z,69.40
2022-11-22T17:18:46.247Z,56.75
2022-11-22T17:21:20.985Z,53.78
2022-11-22T17:23:49.531Z,44.90
2022-11-22T17:26:16.355Z,45.97
2022-11-22T17:28:42.989Z,43.47
2022-11-22T17:31:13.142Z,49.20
2022-11-22T17:33:39.917Z,46.47
2022-11-22T17:36:19.616Z,48.80
2022-11-22T17:38:46.229Z,47.92
2022-11-22T17:41:12.869Z,49.45
2022-11-22T17:43:39.479Z,51.67
2022-11-22T17:46:06.143Z,53.83
2022-11-22T17:48:32.772Z,58.63
2022-11-22T17:50:59.414Z,86.85
2022-11-22T17:53:26.085Z,70.95
2022-11-22T17:56:10.169Z,48.78
2022-11-22T17:58:37.956Z,48.92
2022-11-22T18:01:08.513Z,45.33
2022-11-22T18:03:35.519Z,41.75
2022-11-22T18:06:02.323Z,38.55
2022-11-22T18:08:29.591Z,39.88
2022-11-22T18:10:59.734Z,39.28
2022-11-22T18:13:28.318Z,36.13
2022-11-22T18:16:02.998Z,33.35
2022-11-22T18:18:55.851Z,56.60
2022-11-22T18:23:46.380Z,65.80
2022-11-22T18:29:35.665Z,29.35
2022-11-22T18:34:23.117Z,23.60
2022-11-22T18:36:55.922Z,28.30
2022-11-22T18:39:26.138Z,25.13
2022-11-22T18:41:52.811Z,21.02
2022-11-22T18:44:19.604Z,22.58
2022-11-22T18:46:46.925Z,30.20
2022-11-22T18:49:13.579Z,35.75
2022-11-22T18:51:40.228Z,31.52
2022-11-22T18:54:09.958Z,26.30
2022-11-22T18:56:40.703Z,18.70
2022-11-22T18:59:09.992Z,16.20
2022-11-22T19:01:38.651Z,15.50
2022-11-22T19:04:05.583Z,17.75
2022-11-22T19:06:32.267Z,16.10
2022-11-22T19:08:59.025Z,29.08
2022-11-22T19:11:26.079Z,46.53
2022-11-22T19:13:53.069Z,36.90
2022-11-22T19:16:22.318Z,27.73
2022-11-22T19:18:49.748Z,25.67
2022-11-22T19:21:19.374Z,24.95
2022-11-22T19:23:46.950Z,25.60
2022-11-22T19:26:16.645Z,23.00
2022-11-22T19:28:43.314Z,25.30
2022-11-22T19:31:13.741Z,25.83
2022-11-22T19:33:40.957Z,26.52
2022-11-22T19:36:14.428Z,24.63
2022-11-22T19:38:42.649Z,24.27
2022-11-22T19:41:11.400Z,28.70
2022-11-22T19:43:38.519Z,27.92
2022-11-22T19:46:06.185Z,33.35
2022-11-22T19:48:35.771Z,28.40
2022-11-22T19:51:12.005Z,26.20
2022-11-22T19:53:39.049Z,28.08
2022-11-22T19:56:11.921Z,26.08
2022-11-22T19:58:38.887Z,25.48
2022-11-22T20:01:08.406Z,25.95
2022-11-22T20:03:36.234Z,24.48
2022-11-22T20:06:04.572Z,22.67
2022-11-22T20:08:31.774Z,23.00
2022-11-22T20:11:01.377Z,14.75
2022-11-22T20:13:28.125Z,16.35
2022-11-22T20:15:55.682Z,19.08
2022-11-22T20:18:22.297Z,18.80
2022-11-22T20:20:48.922Z,16.75
2022-11-22T20:23:15.589Z,15.98
2022-11-22T20:25:42.200Z,17.00
2022-11-22T20:28:08.819Z,15.18
2022-11-22T20:30:35.465Z,14.55
2022-11-22T20:33:02.502Z,16.63
2022-11-22T20:35:29.175Z,16.42
2022-11-22T20:37:55.788Z,15.48
2022-11-22T20:40:22.413Z,15.80
2022-11-22T20:42:52.333Z,14.10
2022-11-22T20:45:19.066Z,17.52
2022-11-22T20:47:45.694Z,20.13
2022-11-22T20:50:12.295Z,17.85
2022-11-22T20:52:38.953Z,22.05
2022-11-22T20:55:06.417Z,30.00
2022-11-22T20:57:34.070Z,25.42
2022-11-22T21:00:01.748Z,20.17
2022-11-22T21:02:28.408Z,19.30
2022-11-22T21:04:55.110Z,17.95
2022-11-22T21:07:21.937Z,17.00
2022-11-22T21:09:48.632Z,17.92
2022-11-22T21:12:15.294Z,19.65
2022-11-22T21:14:42.007Z,22.55
2022-11-22T21:17:37.115Z,21.00
2022-11-22T21:19:55.212Z,22.20
2022-11-22T21:22:21.881Z,21.83
2022-11-22T21:24:48.551Z,22.25
2022-11-22T21:27:15.197Z,18.50
2022-11-22T21:29:41.849Z,18.65
2022-11-22T21:32:08.567Z,17.17
2022-11-22T21:34:35.670Z,15.30
2022-11-22T21:37:02.289Z,19.98
2022-11-22T21:39:28.915Z,13.85
2022-11-22T21:41:55.638Z,14.00
2022-11-22T21:44:22.249Z,15.18
2022-11-22T21:46:48.899Z,14.00
2022-11-22T21:49:15.534Z,14.02
2022-11-22T21:51:42.376Z,13.73
2022-11-22T21:54:09.101Z,14.18
2022-11-22T21:56:35.776Z,11.95
2022-11-22T21:59:02.460Z,11.10
2022-11-22T22:01:29.296Z,11.15
2022-11-22T22:03:56.073Z,11.40
2022-11-22T22:06:30.192Z,12.20
2022-11-22T22:08:56.934Z,11.80
2022-11-22T22:11:23.897Z,12.20
2022-11-22T22:13:54.272Z,13.05
2022-11-22T22:16:23.838Z,11.48
2022-11-22T22:18:50.471Z,12.80
2022-11-22T22:21:18.423Z,13.77
2022-11-22T22:23:45.800Z,12.25
2022-11-22T22:26:15.500Z,9.02
2022-11-22T22:28:42.902Z,10.48
2022-11-22T22:31:14.611Z,11.55
2022-11-22T22:33:41.742Z,13.02
2022-11-22T22:36:10.448Z,16.30
2022-11-22T22:38:38.482Z,15.10
2022-11-22T22:41:06.316Z,20.58
2022-11-22T22:43:35.594Z,16.95
2022-11-22T22:46:18.940Z,17.25
2022-11-22T22:48:47.054Z,16.98
2022-11-22T22:51:17.762Z,14.68
2022-11-22T22:53:45.238Z,14.77
2022-11-22T22:56:13.207Z,20.52
2022-11-22T22:58:40.585Z,14.20
2022-11-22T23:01:18.526Z,15.63
2022-11-22T23:03:49.799Z,17.15
2022-11-22T23:06:17.350Z,14.18
2022-11-22T23:08:46.711Z,10.07
2022-11-22T23:11:14.132Z,12.43
2022-11-22T23:13:43.082Z,12.02
2022-11-22T23:16:12.533Z,13.27
2022-11-22T23:18:41.739Z,13.80
2022-11-22T23:21:12.073Z,10.45
2022-11-22T23:23:39.155Z,11.52
2022-11-22T23:26:09.508Z,13.25
2022-11-22T23:28:36.173Z,12.73
2022-11-22T23:31:09.327Z,13.48
2022-11-22T23:33:36.226Z,13.88
2022-11-22T23:36:05.482Z,12.20
2022-11-22T23:38:32.833Z,11.00
2022-11-22T23:40:59.842Z,10.55
2022-11-22T23:43:26.624Z,11.70
2022-11-22T23:45:53.382Z,14.70
2022-11-22T23:48:20.046Z,14.32
2022-11-22T23:50:46.698Z,14.65
2022-11-22T23:53:13.304Z,12.40
2022-11-22T23:55:39.932Z,12.27
2022-11-22T23:58:06.571Z,14.18
